You are not logged in, Click here to log in
ICAO: EDLW Country: 多特蒙德機場位於德國多特蒙德東部約10公里的霍爾茨維克德和翁納交界處
Latitude: 51.5183 Longitude: 7.61224
Total Arrivals: 1 Total Departures: 1
Latest Arrival: FR6984D (LIRF-EDLW)Stone. Chang Latest Departure: CMGEL3 (EDLW-EPWA)Stone. Chang
Scenery: http://en.wikipedia.org/wiki/Paderborn_Lippstadt_Airport
METAR : EDLW 241150Z 25009KT 210V320 CAVOK 23/09 Q1014

多特蒙德機場DTM